Time;durP1;ratioP1;P1;durP2;ratioP2;P2;SDS_P1;SDS_P2;PMS_P1;PMS_P2;Temp;Humidity;BMP_temperature;BMP_pressure;BME280_temperature;BME280_humidity;BME280_pressure;Samples;Min_cycle;Max_cycle;Signal;HPM_P1;HPM_P2
2023/07/22 00:01:13;;;;;;;1.90;0.75;;;;;;;;;;5014634;28;20018;-74
2023/07/22 00:03:39;;;;;;;1.25;0.90;;;;;;;;;;5014655;28;20030;-74
2023/07/22 00:06:09;;;;;;;2.30;0.93;;;;;;;;;;5014551;28;20022;-74
2023/07/22 00:08:35;;;;;;;;;;;;;;;;;;5015248;28;20026;-74
2023/07/22 00:11:01;;;;;;;1.70;0.93;;;;;;;;;;5014497;28;19913;-74
2023/07/22 00:13:27;;;;;;;1.08;0.82;;;;;;;;;;5014466;28;20029;-74
2023/07/22 00:15:54;;;;;;;1.67;1.33;;;;;;;;;;5014444;28;20026;-74
2023/07/22 00:18:20;;;;;;;2.75;1.25;;;;;;;;;;5014323;28;20368;-74
2023/07/22 00:20:46;;;;;;;1.85;1.00;;;;;;;;;;5014311;28;20025;-74
2023/07/22 00:23:12;;;;;;;4.07;1.35;;;;;;;;;;5014235;28;20025;-74
2023/07/22 00:25:38;;;;;;;1.58;1.10;;;;;;;;;;5013665;28;20065;-74
2023/07/22 00:28:04;;;;;;;2.42;1.00;;;;;;;;;;5012773;28;20034;-74
2023/07/22 00:30:30;;;;;;;2.45;1.10;;;;;;;;;;5014335;28;20413;-74
2023/07/22 00:32:56;;;;;;;4.88;1.13;;;;;;;;;;5014186;28;20587;-74
2023/07/22 00:35:22;;;;;;;2.72;1.48;;;;;;;;;;5013136;28;20026;-74
2023/07/22 00:37:48;;;;;;;3.30;1.13;;;;;;;;;;5013981;28;20026;-74
2023/07/22 00:40:15;;;;;;;2.65;1.17;;;;;;;;;;5013974;28;20388;-74
2023/07/22 00:42:41;;;;;;;4.38;1.30;;;;;;;;;;5014134;28;20105;-74
2023/07/22 00:45:08;;;;;;;3.72;1.17;;;;;;;;;;5013818;28;20149;-74
2023/07/22 00:47:35;;;;;;;2.92;1.38;;;;;;;;;;5013776;28;20048;-74
2023/07/22 00:50:03;;;;;;;3.45;1.63;;;;;;;;;;5013786;28;20485;-74
2023/07/22 00:52:29;;;;;;;4.00;1.60;;;;;;;;;;5013722;28;20025;-74
2023/07/22 00:54:55;;;;;;;2.03;1.23;;;;;;;;;;5013762;28;20101;-74
2023/07/22 00:57:21;;;;;;;3.33;1.52;;;;;;;;;;5013618;28;20029;-74
2023/07/22 00:59:47;;;;;;;4.68;1.75;;;;;;;;;;5013633;28;20026;-74
2023/07/22 01:02:13;;;;;;;4.05;1.60;;;;;;;;;;5013516;28;20607;-74
2023/07/22 01:04:40;;;;;;;3.75;1.70;;;;;;;;;;5013466;28;20076;-74
2023/07/22 01:07:06;;;;;;;4.38;1.40;;;;;;;;;;5013380;28;20030;-74
2023/07/22 01:09:39;;;;;;;3.75;1.80;;;;;;;;;;5013451;28;20040;-74
2023/07/22 01:12:06;;;;;;;5.68;2.53;;;;;;;;;;5013315;28;20347;-74
2023/07/22 01:14:35;;;;;;;5.40;2.17;;;;;;;;;;5013230;28;20032;-74
2023/07/22 01:17:05;;;;;;;6.15;1.83;;;;;;;;;;5013414;28;20030;-74
2023/07/22 01:19:31;;;;;;;3.70;1.73;;;;;;;;;;5013418;28;20022;-74
2023/07/22 01:21:58;;;;;;;4.90;1.80;;;;;;;;;;5013417;28;20084;-74
2023/07/22 01:24:24;;;;;;;3.75;1.70;;;;;;;;;;5011951;28;20088;-74
2023/07/22 01:26:50;;;;;;;2.97;1.83;;;;;;;;;;5013214;28;20045;-74
2023/07/22 01:29:16;;;;;;;4.00;1.70;;;;;;;;;;5013300;28;20025;-74
2023/07/22 01:31:42;;;;;;;2.33;1.50;;;;;;;;;;5013125;28;20045;-74
2023/07/22 01:34:08;;;;;;;4.15;1.80;;;;;;;;;;5013076;28;20461;-74
2023/07/22 01:36:34;;;;;;;3.60;1.77;;;;;;;;;;5013080;28;20030;-74
2023/07/22 01:39:00;;;;;;;3.13;2.05;;;;;;;;;;5012956;28;20026;-74
2023/07/22 01:41:28;;;;;;;4.40;1.92;;;;;;;;;;5013196;28;20026;-74
2023/07/22 01:43:55;;;;;;;3.35;2.13;;;;;;;;;;5012961;28;20033;-74
2023/07/22 01:46:21;;;;;;;5.35;2.25;;;;;;;;;;5012502;28;20042;-74
2023/07/22 01:48:47;;;;;;;3.67;2.08;;;;;;;;;;5013115;28;20736;-74
2023/07/22 01:51:13;;;;;;;7.82;2.50;;;;;;;;;;5012834;28;20026;-74
2023/07/22 01:53:39;;;;;;;4.45;2.05;;;;;;;;;;5012842;28;20025;-74
2023/07/22 01:56:05;;;;;;;7.00;2.72;;;;;;;;;;5012659;28;20101;-74
2023/07/22 01:58:31;;;;;;;4.70;2.67;;;;;;;;;;5012857;28;20424;-74
2023/07/22 02:00:57;;;;;;;4.97;2.42;;;;;;;;;;5012696;28;20041;-74
2023/07/22 02:03:23;;;;;;;5.45;2.50;;;;;;;;;;5012627;28;20025;-74
2023/07/22 02:05:49;;;;;;;7.97;2.83;;;;;;;;;;5012599;28;20101;-75
2023/07/22 02:08:15;;;;;;;7.15;2.65;;;;;;;;;;5012867;28;20062;-75
2023/07/22 02:10:41;;;;;;;8.00;2.67;;;;;;;;;;5012562;28;20057;-75
2023/07/22 02:13:07;;;;;;;5.13;2.30;;;;;;;;;;5012603;28;20412;-75
2023/07/22 02:15:34;;;;;;;5.68;2.50;;;;;;;;;;5012652;28;20034;-75
2023/07/22 02:18:00;;;;;;;5.85;2.33;;;;;;;;;;5012701;28;20121;-75
2023/07/22 02:20:28;;;;;;;5.63;2.65;;;;;;;;;;5012545;28;20030;-75
2023/07/22 02:22:55;;;;;;;6.13;2.55;;;;;;;;;;5012687;28;20045;-75
2023/07/22 02:25:28;;;;;;;5.63;2.80;;;;;;;;;;5012128;28;20053;-75
2023/07/22 02:27:54;;;;;;;4.07;2.55;;;;;;;;;;5012321;28;20560;-75
2023/07/22 02:30:20;;;;;;;5.25;2.72;;;;;;;;;;5012509;28;20110;-75
2023/07/22 02:32:46;;;;;;;10.07;3.05;;;;;;;;;;5012455;28;20033;-75
2023/07/22 02:35:12;;;;;;;8.07;2.95;;;;;;;;;;5012416;28;20026;-75
2023/07/22 02:37:39;;;;;;;7.30;3.10;;;;;;;;;;5012302;28;20069;-75
2023/07/22 02:40:11;;;;;;;5.18;2.72;;;;;;;;;;5012375;28;20014;-75
2023/07/22 02:42:37;;;;;;;8.93;3.00;;;;;;;;;;5012642;28;20018;-75
2023/07/22 02:45:09;;;;;;;7.70;3.42;;;;;;;;;;5012254;28;20030;-75
2023/07/22 02:47:35;;;;;;;8.13;3.35;;;;;;;;;;5012265;28;20034;-75
2023/07/22 02:50:03;;;;;;;8.55;3.53;;;;;;;;;;5012156;28;20050;-75
2023/07/22 02:52:29;;;;;;;6.82;3.30;;;;;;;;;;5012431;28;20468;-75
2023/07/22 02:55:05;;;;;;;7.65;3.10;;;;;;;;;;5012197;28;20058;-75
2023/07/22 02:57:31;;;;;;;8.35;3.40;;;;;;;;;;5012469;28;20030;-75
2023/07/22 02:59:57;;;;;;;8.40;3.10;;;;;;;;;;5016128;28;20457;-75
2023/07/22 03:02:23;;;;;;;11.15;3.58;;;;;;;;;;5015812;28;20570;-75
2023/07/22 03:04:49;;;;;;;7.68;3.42;;;;;;;;;;5015711;28;20025;-75
2023/07/22 03:07:15;;;;;;;8.27;3.47;;;;;;;;;;5015863;28;20034;-75
2023/07/22 03:09:42;;;;;;;7.55;3.70;;;;;;;;;;5015956;28;20026;-75
2023/07/22 03:12:08;;;;;;;7.78;3.65;;;;;;;;;;5015644;28;20493;-75
2023/07/22 03:14:37;;;;;;;8.27;3.53;;;;;;;;;;5015532;28;20058;-75
2023/07/22 03:17:06;;;;;;;9.38;4.47;;;;;;;;;;5015769;28;20115;-75
2023/07/22 03:19:32;;;;;;;9.10;3.55;;;;;;;;;;5015302;28;20112;-75
2023/07/22 03:21:58;;;;;;;9.55;3.90;;;;;;;;;;5015424;28;20354;-75
2023/07/22 03:24:25;;;;;;;8.68;3.70;;;;;;;;;;5014215;28;20039;-73
2023/07/22 03:26:51;;;;;;;10.10;4.72;;;;;;;;;;5015503;28;20034;-72
2023/07/22 03:29:17;;;;;;;9.13;4.75;;;;;;;;;;5015384;28;20079;-73
2023/07/22 03:31:43;;;;;;;10.52;4.65;;;;;;;;;;5014991;28;20026;-72
2023/07/22 03:34:09;;;;;;;10.70;5.07;;;;;;;;;;5015079;28;20543;-72
2023/07/22 03:36:35;;;;;;;12.65;5.53;;;;;;;;;;5015462;28;20030;-72
2023/07/22 03:39:01;;;;;;;12.82;5.28;;;;;;;;;;5015109;28;20045;-72
2023/07/22 03:41:27;;;;;;;13.88;5.97;;;;;;;;;;5015140;28;20022;-72
2023/07/22 03:43:53;;;;;;;13.52;6.18;;;;;;;;;;5015041;28;20037;-74
2023/07/22 03:46:19;;;;;;;14.15;6.43;;;;;;;;;;5015040;28;20104;-73
2023/07/22 03:48:45;;;;;;;14.70;6.40;;;;;;;;;;5014861;28;20018;-74
2023/07/22 03:51:11;;;;;;;14.93;6.50;;;;;;;;;;5015201;28;20018;-74
2023/07/22 03:53:37;;;;;;;15.15;6.65;;;;;;;;;;5014812;28;20032;-74
2023/07/22 03:56:03;;;;;;;13.40;6.07;;;;;;;;;;5014728;28;20055;-74
2023/07/22 03:58:29;;;;;;;13.13;5.95;;;;;;;;;;5014805;28;20030;-74
2023/07/22 04:00:55;;;;;;;18.35;6.80;;;;;;;;;;5014578;28;20025;-74
2023/07/22 04:03:21;;;;;;;18.70;6.90;;;;;;;;;;5014620;28;20436;-74
2023/07/22 04:05:56;;;;;;;14.43;7.03;;;;;;;;;;5014714;28;20030;-74
2023/07/22 04:08:22;;;;;;;14.18;6.43;;;;;;;;;;5014483;28;20563;-74
2023/07/22 04:11:06;;;;;;;14.05;6.95;;;;;;;;;;5014560;28;20029;-74
2023/07/22 04:13:32;;;;;;;13.23;6.90;;;;;;;;;;5014470;28;20457;-74
2023/07/22 04:15:58;;;;;;;12.98;6.43;;;;;;;;;;5014699;28;20076;-74
2023/07/22 04:18:24;;;;;;;12.48;6.55;;;;;;;;;;5014499;28;20022;-74
2023/07/22 04:20:57;;;;;;;13.25;6.55;;;;;;;;;;5014495;28;20033;-74
2023/07/22 04:23:23;;;;;;;14.25;6.82;;;;;;;;;;5014842;28;20014;-74
2023/07/22 04:25:49;;;;;;;12.82;6.40;;;;;;;;;;5014228;28;20050;-74
2023/07/22 04:28:15;;;;;;;13.52;6.63;;;;;;;;;;5014349;28;20044;-74
2023/07/22 04:30:41;;;;;;;12.30;6.13;;;;;;;;;;5014144;28;20625;-74
2023/07/22 04:33:10;;;;;;;14.38;6.25;;;;;;;;;;5014142;28;20041;-73
2023/07/22 04:35:38;;;;;;;12.55;5.85;;;;;;;;;;5014248;28;20021;-74
2023/07/22 04:38:04;;;;;;;11.77;5.95;;;;;;;;;;5014037;28;20397;-74
2023/07/22 04:40:31;;;;;;;12.20;6.18;;;;;;;;;;5013957;28;20032;-74
2023/07/22 04:42:57;;;;;;;10.85;5.85;;;;;;;;;;5013478;28;20022;-74
2023/07/22 04:45:24;;;;;;;13.90;5.90;;;;;;;;;;5013686;28;20076;-74
2023/07/22 04:47:53;;;;;;;11.10;5.47;;;;;;;;;;5013731;28;20058;-74
2023/07/22 04:50:19;;;;;;;10.98;5.35;;;;;;;;;;5013766;28;20041;-74
2023/07/22 04:52:46;;;;;;;12.55;5.65;;;;;;;;;;5013655;28;20026;-74
2023/07/22 04:55:12;;;;;;;12.10;5.57;;;;;;;;;;5013641;28;20431;-74
2023/07/22 04:57:40;;;;;;;10.15;5.28;;;;;;;;;;5013639;28;20480;-74
2023/07/22 05:00:09;;;;;;;10.75;5.68;;;;;;;;;;5013955;28;20026;-74
2023/07/22 05:02:35;;;;;;;11.82;5.65;;;;;;;;;;5013803;28;20013;-74
2023/07/22 05:05:02;;;;;;;9.07;5.03;;;;;;;;;;5013471;28;20029;-74
2023/07/22 05:07:28;;;;;;;11.23;5.07;;;;;;;;;;5013620;28;20037;-74
2023/07/22 05:09:54;;;;;;;10.48;5.82;;;;;;;;;;5013660;28;20025;-75
2023/07/22 05:12:20;;;;;;;10.70;5.60;;;;;;;;;;5013586;28;20037;-74
2023/07/22 05:14:46;;;;;;;11.38;5.57;;;;;;;;;;5013329;28;20030;-74
2023/07/22 05:17:12;;;;;;;10.40;5.28;;;;;;;;;;5013466;28;20033;-74
2023/07/22 05:19:38;;;;;;;9.25;5.25;;;;;;;;;;5013186;28;20032;-73
2023/07/22 05:22:04;;;;;;;8.85;5.47;;;;;;;;;;5012621;28;20033;-73
2023/07/22 05:24:30;;;;;;;9.38;5.13;;;;;;;;;;5012496;28;20046;-74
2023/07/22 05:26:56;;;;;;;9.40;5.47;;;;;;;;;;5013083;28;20381;-74
2023/07/22 05:29:23;;;;;;;12.32;5.13;;;;;;;;;;5013113;28;20135;-74
2023/07/22 05:31:49;;;;;;;8.75;4.85;;;;;;;;;;5013037;28;20041;-74
2023/07/22 05:34:15;;;;;;;8.68;5.53;;;;;;;;;;5012978;28;20025;-74
2023/07/22 05:36:41;;;;;;;9.90;5.63;;;;;;;;;;5013228;28;20022;-74
2023/07/22 05:39:07;;;;;;;10.85;5.93;;;;;;;;;;5012921;28;20030;-74
2023/07/22 05:41:34;;;;;;;10.55;6.05;;;;;;;;;;5012910;28;20346;-74
2023/07/22 05:44:00;;;;;;;11.23;6.35;;;;;;;;;;5012875;28;20044;-74
2023/07/22 05:46:26;;;;;;;12.35;6.35;;;;;;;;;;5012725;28;20465;-74
2023/07/22 05:48:52;;;;;;;10.68;7.05;;;;;;;;;;5012886;28;20026;-74
2023/07/22 05:51:19;;;;;;;10.98;5.85;;;;;;;;;;5012783;28;20042;-74
2023/07/22 05:53:45;;;;;;;11.75;6.03;;;;;;;;;;5012792;28;20037;-74
2023/07/22 05:56:11;;;;;;;15.05;6.43;;;;;;;;;;5012767;28;20570;-74
2023/07/22 05:58:37;;;;;;;10.80;6.15;;;;;;;;;;5012695;28;20061;-74
2023/07/22 06:01:03;;;;;;;12.23;6.90;;;;;;;;;;5012898;28;20030;-74
2023/07/22 06:03:29;;;;;;;14.13;7.70;;;;;;;;;;5012666;28;20461;-74
2023/07/22 06:05:55;;;;;;;13.23;7.00;;;;;;;;;;5012597;28;20527;-74
2023/07/22 06:08:21;;;;;;;12.50;7.18;;;;;;;;;;5012489;28;20113;-74
2023/07/22 06:10:47;;;;;;;11.88;7.03;;;;;;;;;;5012466;28;20118;-74
2023/07/22 06:13:13;;;;;;;12.30;6.82;;;;;;;;;;5012755;28;20095;-74
2023/07/22 06:15:39;;;;;;;12.80;7.65;;;;;;;;;;5012471;28;20433;-74
2023/07/22 06:18:09;;;;;;;13.15;7.30;;;;;;;;;;5012441;28;20034;-74
2023/07/22 06:20:35;;;;;;;12.83;7.40;;;;;;;;;;5012574;28;20053;-74
2023/07/22 06:23:02;;;;;;;13.68;7.18;;;;;;;;;;5012374;28;20075;-75
2023/07/22 06:25:28;;;;;;;11.98;6.88;;;;;;;;;;5012217;28;20053;-75
2023/07/22 06:27:54;;;;;;;12.23;6.85;;;;;;;;;;5012216;28;20057;-75
2023/07/22 06:30:20;;;;;;;13.82;7.20;;;;;;;;;;5012327;28;20033;-75
2023/07/22 06:32:46;;;;;;;12.98;7.20;;;;;;;;;;5012529;28;20014;-74
2023/07/22 06:35:12;;;;;;;13.27;7.57;;;;;;;;;;5016091;28;20408;-74
2023/07/22 06:37:39;;;;;;;14.05;7.45;;;;;;;;;;5007954;28;20055;-74
2023/07/22 06:40:06;;;;;;;13.88;7.38;;;;;;;;;;5011794;28;20027;-75
2023/07/22 06:42:33;;;;;;;12.88;7.47;;;;;;;;;;5001007;28;20335;-75
2023/07/22 06:44:59;;;;;;;11.07;6.20;;;;;;;;;;5026112;28;20086;-74
2023/07/22 06:47:25;;;;;;;9.75;6.80;;;;;;;;;;5011179;28;20556;-74
2023/07/22 06:49:51;;;;;;;9.18;6.25;;;;;;;;;;5010491;28;20022;-74
2023/07/22 06:52:17;;;;;;;10.57;5.70;;;;;;;;;;4999176;28;20429;-74
2023/07/22 06:54:43;;;;;;;8.68;5.70;;;;;;;;;;4997988;28;20026;-74
2023/07/22 06:57:09;;;;;;;11.40;6.20;;;;;;;;;;5015122;28;20449;-74
2023/07/22 06:59:35;;;;;;;10.30;6.15;;;;;;;;;;5006493;28;20034;-74
2023/07/22 07:02:02;;;;;;;9.50;6.15;;;;;;;;;;5011644;28;20018;-74
2023/07/22 07:04:28;;;;;;;9.20;6.07;;;;;;;;;;5015700;28;20519;-75
2023/07/22 07:06:54;;;;;;;10.65;5.65;;;;;;;;;;5015575;28;20038;-74
2023/07/22 07:09:20;;;;;;;10.20;5.80;;;;;;;;;;5015613;28;20026;-74
2023/07/22 07:11:46;;;;;;;10.15;5.75;;;;;;;;;;5015832;28;20394;-74
2023/07/22 07:14:12;;;;;;;9.15;5.28;;;;;;;;;;5015697;28;20644;-75
2023/07/22 07:16:38;;;;;;;8.75;5.15;;;;;;;;;;5015612;28;20042;-75
2023/07/22 07:19:04;;;;;;;8.90;4.88;;;;;;;;;;5015593;28;20084;-75
2023/07/22 07:21:31;;;;;;;6.60;4.43;;;;;;;;;;5015489;28;20018;-74
2023/07/22 07:23:58;;;;;;;6.10;3.60;;;;;;;;;;5015466;28;20105;-75
2023/07/22 07:26:24;;;;;;;6.32;3.80;;;;;;;;;;5015495;28;20049;-75
2023/07/22 07:28:51;;;;;;;5.53;3.50;;;;;;;;;;5014557;28;20026;-74
2023/07/22 07:31:17;;;;;;;5.68;3.50;;;;;;;;;;5014018;28;20152;-75
2023/07/22 07:33:43;;;;;;;4.88;3.15;;;;;;;;;;5013840;28;20032;-75
2023/07/22 07:36:09;;;;;;;7.20;3.78;;;;;;;;;;5014301;28;20034;-74
2023/07/22 07:38:36;;;;;;;5.28;3.15;;;;;;;;;;5014089;28;20058;-75
2023/07/22 07:41:11;;;;;;;5.95;3.30;;;;;;;;;;5015165;28;20052;-75
2023/07/22 07:43:37;;;;;;;4.20;3.00;;;;;;;;;;5014774;28;20026;-75
2023/07/22 07:46:19;;;;;;;6.78;3.28;;;;;;;;;;5014898;28;20056;-75
2023/07/22 07:48:45;;;;;;;6.78;3.20;;;;;;;;;;5015268;28;20040;-75
2023/07/22 07:51:13;;;;;;;7.03;2.90;;;;;;;;;;5014852;28;20156;-75
2023/07/22 07:53:39;;;;;;;4.80;2.90;;;;;;;;;;5014805;28;20129;-74
2023/07/22 07:56:05;;;;;;;4.72;2.90;;;;;;;;;;5014707;28;20147;-75
2023/07/22 07:58:31;;;;;;;3.95;2.85;;;;;;;;;;5014885;28;20018;-75
2023/07/22 08:00:57;;;;;;;3.83;2.63;;;;;;;;;;5000825;28;20145;-75
2023/07/22 08:03:23;;;;;;;5.00;2.70;;;;;;;;;;4994072;28;20022;-75
2023/07/22 08:05:50;;;;;;;4.05;2.42;;;;;;;;;;4994933;28;20041;-74
2023/07/22 08:08:16;;;;;;;4.47;2.70;;;;;;;;;;4995297;28;20026;-74
2023/07/22 08:10:44;;;;;;;5.60;3.28;;;;;;;;;;4994935;28;20554;-74
2023/07/22 08:13:10;;;;;;;7.25;2.83;;;;;;;;;;4995220;28;20448;-74
2023/07/22 08:15:36;;;;;;;3.88;2.60;;;;;;;;;;4994847;28;20033;-74
2023/07/22 08:18:03;;;;;;;3.42;2.38;;;;;;;;;;4994884;28;20037;-74
2023/07/22 08:20:33;;;;;;;4.43;3.17;;;;;;;;;;5005245;28;20030;-74
2023/07/22 08:23:07;;;;;;;4.10;2.58;;;;;;;;;;5014324;28;20428;-74
2023/07/22 08:25:33;;;;;;;3.70;2.60;;;;;;;;;;5014281;28;20584;-74
2023/07/22 08:28:00;;;;;;;4.00;2.78;;;;;;;;;;5014001;28;20124;-74
2023/07/22 08:30:26;;;;;;;17.55;8.77;;;;;;;;;;5014114;28;20036;-74
2023/07/22 08:32:52;;;;;;;29.60;15.15;;;;;;;;;;5014358;28;20483;-74
2023/07/22 08:35:18;;;;;;;25.05;13.73;;;;;;;;;;5013984;28;20030;-74
2023/07/22 08:37:44;;;;;;;26.50;15.25;;;;;;;;;;5013967;28;20413;-74
2023/07/22 08:40:11;;;;;;;16.80;9.43;;;;;;;;;;5013964;28;20056;-74
2023/07/22 08:42:38;;;;;;;11.23;6.60;;;;;;;;;;5012469;28;20042;-74
2023/07/22 08:45:06;;;;;;;7.97;4.75;;;;;;;;;;5013836;28;20025;-74
2023/07/22 08:47:32;;;;;;;10.88;6.20;;;;;;;;;;5013762;28;20034;-74
2023/07/22 08:50:01;;;;;;;11.40;5.90;;;;;;;;;;5013488;28;20109;-74
2023/07/22 08:52:27;;;;;;;7.03;4.32;;;;;;;;;;5013752;28;20017;-74
2023/07/22 08:54:55;;;;;;;7.22;3.92;;;;;;;;;;5013383;28;20472;-74
2023/07/22 08:57:22;;;;;;;5.78;4.30;;;;;;;;;;5013038;28;20022;-74
2023/07/22 08:59:48;;;;;;;6.70;4.20;;;;;;;;;;5013599;28;20041;-74
2023/07/22 09:02:15;;;;;;;7.85;4.80;;;;;;;;;;5013536;28;20037;-74
2023/07/22 09:04:42;;;;;;;5.30;3.90;;;;;;;;;;5013620;28;20033;-74
2023/07/22 09:07:09;;;;;;;5.68;4.32;;;;;;;;;;5013502;28;20037;-74
2023/07/22 09:09:36;;;;;;;6.50;3.75;;;;;;;;;;5013501;28;20443;-74
2023/07/22 09:12:02;;;;;;;4.82;3.60;;;;;;;;;;5013399;28;20030;-74
2023/07/22 09:14:28;;;;;;;5.38;4.03;;;;;;;;;;5013391;28;20025;-74
2023/07/22 09:16:54;;;;;;;4.80;4.13;;;;;;;;;;5013289;28;20049;-74
2023/07/22 09:19:21;;;;;;;4.75;3.67;;;;;;;;;;5013966;28;20030;-74
2023/07/22 09:21:47;;;;;;;7.82;4.20;;;;;;;;;;5013545;28;20025;-74
2023/07/22 09:24:23;;;;;;;5.15;3.75;;;;;;;;;;5013012;28;20396;-74
2023/07/22 09:26:49;;;;;;;4.47;3.83;;;;;;;;;;5013189;28;20064;-74
2023/07/22 09:29:15;;;;;;;5.80;3.92;;;;;;;;;;5013387;28;20021;-74
2023/07/22 09:31:54;;;;;;;4.93;3.75;;;;;;;;;;5013327;28;20126;-74
2023/07/22 09:34:22;;;;;;;6.05;3.45;;;;;;;;;;5013590;28;20026;-74
2023/07/22 09:36:52;;;;;;;4.57;3.00;;;;;;;;;;4997676;28;20018;-74
2023/07/22 09:39:18;;;;;;;4.35;3.22;;;;;;;;;;4994008;28;20019;-74
2023/07/22 09:41:44;;;;;;;3.80;3.00;;;;;;;;;;4999646;28;20358;-74
2023/07/22 09:44:12;;;;;;;3.28;2.83;;;;;;;;;;5012767;28;20515;-74
2023/07/22 09:46:38;;;;;;;5.45;3.42;;;;;;;;;;5012997;28;20113;-74
2023/07/22 09:49:05;;;;;;;4.32;3.15;;;;;;;;;;5013019;28;20036;-75
2023/07/22 09:51:35;;;;;;;4.50;3.20;;;;;;;;;;5012898;28;20014;-73
2023/07/22 09:54:01;;;;;;;5.25;3.85;;;;;;;;;;5012747;28;20026;-73
2023/07/22 09:56:28;;;;;;;4.90;3.25;;;;;;;;;;5010026;28;20034;-72
2023/07/22 09:58:54;;;;;;;5.63;4.10;;;;;;;;;;4993014;28;20026;-73
2023/07/22 10:01:20;;;;;;;5.57;4.20;;;;;;;;;;4992951;28;20125;-73
2023/07/22 10:03:48;;;;;;;6.90;4.22;;;;;;;;;;4993066;28;20038;-73
2023/07/22 10:06:15;;;;;;;6.13;3.92;;;;;;;;;;4993157;28;20461;-73
2023/07/22 10:08:45;;;;;;;5.50;3.45;;;;;;;;;;4993940;28;20037;-73
2023/07/22 10:11:12;;;;;;;6.85;3.88;;;;;;;;;;4993350;28;20023;-72
2023/07/22 10:13:38;;;;;;;4.15;3.45;;;;;;;;;;4993707;28;20030;-73
2023/07/22 10:16:05;;;;;;;4.55;3.42;;;;;;;;;;4992934;28;20030;-72
2023/07/22 10:18:33;;;;;;;4.40;4.00;;;;;;;;;;4992880;28;20041;-73
2023/07/22 10:20:59;;;;;;;4.32;3.67;;;;;;;;;;4992884;28;20058;-73
2023/07/22 10:23:26;;;;;;;6.18;4.05;;;;;;;;;;4993008;28;20026;-72
2023/07/22 10:25:53;;;;;;;5.38;4.30;;;;;;;;;;5004265;28;20121;-73
2023/07/22 10:28:20;;;;;;;4.85;4.10;;;;;;;;;;5012165;28;20141;-73
2023/07/22 10:30:49;;;;;;;5.13;4.07;;;;;;;;;;5012721;28;20029;-73
2023/07/22 10:33:15;;;;;;;5.72;4.05;;;;;;;;;;5012471;28;20084;-73
2023/07/22 10:35:45;;;;;;;5.53;3.97;;;;;;;;;;5012540;28;20034;-73
2023/07/22 10:38:12;;;;;;;6.97;4.65;;;;;;;;;;5012410;28;20052;-72
2023/07/22 10:40:51;;;;;;;9.95;5.05;;;;;;;;;;5012737;28;20106;-73
2023/07/22 10:43:17;;;;;;;8.17;6.07;;;;;;;;;;5011336;28;20069;-73
2023/07/22 10:45:44;;;;;;;6.13;5.53;;;;;;;;;;5012484;28;20474;-73
2023/07/22 10:48:12;;;;;;;6.72;5.40;;;;;;;;;;5012201;28;20057;-73
2023/07/22 10:50:42;;;;;;;9.35;5.65;;;;;;;;;;5012307;28;20032;-73
2023/07/22 10:53:31;;;;;;;7.45;5.82;;;;;;;;;;5012220;28;20025;-73
2023/07/22 10:56:14;;;;;;;9.17;5.97;;;;;;;;;;5006773;28;20109;-73
2023/07/22 10:58:46;;;;;;;13.85;8.50;;;;;;;;;;5012474;28;20054;-73
2023/07/22 11:01:30;;;;;;;21.88;11.38;;;;;;;;;;5012185;28;20033;-73
2023/07/22 11:04:31;;;;;;;18.08;9.68;;;;;;;;;;5012202;28;20033;-74
2023/07/22 11:07:04;;;;;;;13.82;9.02;;;;;;;;;;5008819;28;20046;-74
2023/07/22 11:09:33;;;;;;;17.17;9.70;;;;;;;;;;5012532;28;20467;-73
2023/07/22 11:11:59;;;;;;;18.20;9.87;;;;;;;;;;5011984;28;20030;-73
2023/07/22 11:14:27;;;;;;;16.08;8.75;;;;;;;;;;5011970;28;20041;-75
2023/07/22 11:16:54;;;;;;;8.27;6.65;;;;;;;;;;5012047;28;20026;-75
2023/07/22 11:19:23;;;;;;;9.20;5.70;;;;;;;;;;5013149;28;20029;-75
2023/07/22 11:21:50;;;;;;;8.52;5.40;;;;;;;;;;5015869;28;20022;-75
2023/07/22 11:24:16;;;;;;;5.60;4.25;;;;;;;;;;5015435;28;20017;-75
2023/07/22 11:26:43;;;;;;;6.55;4.07;;;;;;;;;;5014900;28;20125;-75
2023/07/22 11:29:09;;;;;;;6.70;4.50;;;;;;;;;;5015288;28;20062;-75
2023/07/22 11:31:36;;;;;;;7.90;4.57;;;;;;;;;;5015303;28;20025;-75
2023/07/22 11:34:03;;;;;;;6.07;4.45;;;;;;;;;;5015295;28;20018;-75
2023/07/22 11:36:29;;;;;;;6.45;4.80;;;;;;;;;;5015127;28;20030;-75
2023/07/22 11:39:02;;;;;;;5.93;4.57;;;;;;;;;;5015143;28;20022;-75
2023/07/22 11:41:27;;;;;;;7.57;5.35;;;;;;;;;;5015258;28;20465;-75
2023/07/22 11:43:54;;;;;;;7.32;5.05;;;;;;;;;;5015100;28;20030;-75
2023/07/22 11:46:19;;;;;;;6.50;4.80;;;;;;;;;;5014883;28;20026;-75
2023/07/22 11:48:55;;;;;;;8.48;4.95;;;;;;;;;;5015005;28;20045;-75
2023/07/22 11:51:25;;;;;;;9.02;4.43;;;;;;;;;;5014884;28;20029;-76
2023/07/22 11:53:52;;;;;;;13.02;4.95;;;;;;;;;;5014923;28;20085;-75
2023/07/22 11:56:19;;;;;;;5.68;4.28;;;;;;;;;;5014876;28;20022;-75
2023/07/22 11:58:49;;;;;;;6.68;4.70;;;;;;;;;;5014640;28;20106;-75
2023/07/22 12:01:15;;;;;;;;;;;;;;;;;;5015072;28;20026;-75
2023/07/22 12:03:42;;;;;;;6.18;3.90;;;;;;;;;;5014530;28;19974;-75
2023/07/22 12:06:08;;;;;;;6.35;4.07;;;;;;;;;;5014635;28;20050;-76
2023/07/22 12:08:35;;;;;;;5.13;4.03;;;;;;;;;;5014579;28;20408;-75
2023/07/22 12:11:02;;;;;;;21.63;4.32;;;;;;;;;;5014966;28;20464;-75
2023/07/22 12:13:37;;;;;;;7.13;4.47;;;;;;;;;;5011991;28;20030;-78
2023/07/22 12:16:04;;;;;;;7.38;4.30;;;;;;;;;;5014285;28;20465;-76
2023/07/22 12:18:47;;;;;;;7.60;3.92;;;;;;;;;;5014505;28;20065;-75
2023/07/22 12:21:20;;;;;;;7.22;4.47;;;;;;;;;;5014397;28;20113;-75
2023/07/22 12:23:47;;;;;;;5.65;3.47;;;;;;;;;;5014564;28;20026;-75
2023/07/22 12:26:13;;;;;;;6.60;3.42;;;;;;;;;;5011740;28;20042;-75
2023/07/22 12:28:40;;;;;;;6.40;3.58;;;;;;;;;;5007480;28;20049;-76
2023/07/22 12:31:06;;;;;;;4.38;3.10;;;;;;;;;;5002597;28;20355;-76
2023/07/22 12:33:32;;;;;;;4.88;3.42;;;;;;;;;;5011399;28;20545;-76
2023/07/22 12:35:58;;;;;;;5.88;3.13;;;;;;;;;;4994801;28;20109;-76
2023/07/22 12:38:24;;;;;;;4.57;3.35;;;;;;;;;;5001815;28;20097;-76
2023/07/22 12:40:51;;;;;;;6.53;3.20;;;;;;;;;;5013753;28;20054;-76
2023/07/22 12:43:17;;;;;;;6.30;3.38;;;;;;;;;;5013851;28;20075;-76
2023/07/22 12:45:43;;;;;;;5.30;2.92;;;;;;;;;;5013649;28;20025;-76
2023/07/22 12:48:09;;;;;;;4.43;2.38;;;;;;;;;;5031159;28;20413;-76
2023/07/22 12:50:35;;;;;;;6.68;2.45;;;;;;;;;;5020861;28;20477;-76
2023/07/22 12:53:03;;;;;;;5.75;2.63;;;;;;;;;;5013702;28;20072;-76
2023/07/22 12:55:29;;;;;;;4.70;2.92;;;;;;;;;;5013771;28;20022;-75
2023/07/22 12:57:55;;;;;;;7.35;3.15;;;;;;;;;;5013774;28;20045;-75
2023/07/22 13:00:24;;;;;;;6.38;3.13;;;;;;;;;;5013782;28;20032;-76
2023/07/22 13:02:49;;;;;;;5.68;3.05;;;;;;;;;;5013686;28;20077;-76
2023/07/22 13:05:15;;;;;;;7.40;3.35;;;;;;;;;;5013594;28;20473;-76
2023/07/22 13:07:41;;;;;;;7.82;3.28;;;;;;;;;;5013646;28;20084;-76
2023/07/22 13:10:10;;;;;;;9.18;3.67;;;;;;;;;;5013285;28;20029;-75
2023/07/22 13:12:37;;;;;;;6.45;3.72;;;;;;;;;;5013378;28;20465;-76
2023/07/22 13:15:03;;;;;;;8.32;3.80;;;;;;;;;;5013243;28;20079;-76
2023/07/22 13:17:29;;;;;;;5.63;2.85;;;;;;;;;;5013252;28;20093;-76
2023/07/22 13:19:55;;;;;;;6.00;3.42;;;;;;;;;;5013329;28;20029;-76
2023/07/22 13:22:21;;;;;;;8.70;3.60;;;;;;;;;;5013222;28;20022;-76
2023/07/22 13:24:47;;;;;;;6.47;2.97;;;;;;;;;;5011912;28;20516;-76
2023/07/22 13:27:13;;;;;;;6.50;3.60;;;;;;;;;;5011939;28;20030;-76
2023/07/22 13:29:39;;;;;;;6.90;3.95;;;;;;;;;;5013132;28;20096;-76
2023/07/22 13:32:05;;;;;;;4.72;3.20;;;;;;;;;;5013213;28;20057;-76
2023/07/22 13:34:31;;;;;;;5.93;3.75;;;;;;;;;;5013224;28;20022;-76
2023/07/22 13:36:58;;;;;;;5.47;3.53;;;;;;;;;;5013034;28;20037;-76
2023/07/22 13:39:24;;;;;;;8.25;3.80;;;;;;;;;;4995793;28;20390;-76
2023/07/22 13:41:50;;;;;;;5.72;3.38;;;;;;;;;;4992815;28;20022;-76
2023/07/22 13:44:17;;;;;;;5.43;3.50;;;;;;;;;;4993222;28;20102;-76
2023/07/22 13:46:43;;;;;;;6.85;3.78;;;;;;;;;;4993220;28;20033;-76
2023/07/22 13:49:09;;;;;;;4.82;3.25;;;;;;;;;;4993618;28;20018;-76
2023/07/22 13:51:35;;;;;;;6.53;3.50;;;;;;;;;;4993490;28;20050;-76
2023/07/22 13:54:01;;;;;;;5.30;3.38;;;;;;;;;;4993254;28;20034;-76
2023/07/22 13:56:27;;;;;;;6.55;3.35;;;;;;;;;;4993286;28;20034;-76
2023/07/22 13:58:59;;;;;;;8.13;3.42;;;;;;;;;;4993191;28;20027;-76
2023/07/22 14:01:25;;;;;;;6.22;2.97;;;;;;;;;;4993541;28;20026;-76
2023/07/22 14:03:51;;;;;;;6.72;3.25;;;;;;;;;;4993207;28;20034;-76
2023/07/22 14:06:17;;;;;;;4.55;3.55;;;;;;;;;;4992923;28;20026;-74
2023/07/22 14:08:43;;;;;;;4.85;3.55;;;;;;;;;;4993116;28;20038;-74
2023/07/22 14:11:09;;;;;;;5.28;3.63;;;;;;;;;;4992995;28;20546;-74
2023/07/22 14:13:35;;;;;;;7.05;3.90;;;;;;;;;;4992906;28;20485;-74
2023/07/22 14:16:02;;;;;;;6.35;3.35;;;;;;;;;;4992971;28;20037;-74
2023/07/22 14:18:28;;;;;;;5.65;3.00;;;;;;;;;;4993024;28;20045;-74
2023/07/22 14:20:54;;;;;;;6.20;3.28;;;;;;;;;;4992963;28;20454;-74
2023/07/22 14:23:20;;;;;;;4.07;2.53;;;;;;;;;;4992813;28;20069;-74
2023/07/22 14:25:46;;;;;;;4.55;2.53;;;;;;;;;;4992380;28;20054;-74
2023/07/22 14:28:12;;;;;;;4.57;2.80;;;;;;;;;;4992638;28;20046;-74
2023/07/22 14:30:38;;;;;;;5.57;2.90;;;;;;;;;;4992766;28;20437;-74
2023/07/22 14:33:04;;;;;;;4.20;2.38;;;;;;;;;;4992811;28;20354;-74
2023/07/22 14:35:32;;;;;;;7.13;2.70;;;;;;;;;;4993115;28;20030;-74
2023/07/22 14:37:58;;;;;;;3.28;2.40;;;;;;;;;;4991483;28;20552;-74
2023/07/22 14:40:25;;;;;;;7.13;2.90;;;;;;;;;;4992619;28;20027;-74